createdAt,value
2023-04-10T00:04:14.692Z,19.63
2023-04-10T00:06:43.127Z,19.65
2023-04-10T00:09:11.224Z,16.38
2023-04-10T00:11:38.950Z,19.45
2023-04-10T00:14:06.413Z,16.10
2023-04-10T00:16:34.235Z,18.38
2023-04-10T00:19:02.190Z,20.58
2023-04-10T00:21:30.053Z,15.77
2023-04-10T00:23:57.719Z,18.10
2023-04-10T00:26:27.801Z,15.45
2023-04-10T00:28:55.831Z,18.45
2023-04-10T00:31:23.391Z,16.90
2023-04-10T00:33:51.468Z,19.17
2023-04-10T00:36:20.136Z,19.00
2023-04-10T00:38:49.800Z,18.33
2023-04-10T00:41:20.129Z,19.57
2023-04-10T00:43:48.624Z,17.60
2023-04-10T00:46:18.286Z,16.65
2023-04-10T00:48:47.817Z,15.82
2023-04-10T00:51:15.606Z,23.48
2023-04-10T00:53:44.675Z,18.55
2023-04-10T00:56:12.572Z,18.50
2023-04-10T00:58:40.107Z,17.35
2023-04-10T01:01:08.685Z,16.95
2023-04-10T01:03:37.361Z,16.42
2023-04-10T01:06:09.933Z,18.40
2023-04-10T01:08:40.774Z,18.23
2023-04-10T01:11:14.413Z,17.88
2023-04-10T01:13:48.751Z,16.73
2023-04-10T01:16:21.501Z,16.20
2023-04-10T01:18:54.657Z,19.75
2023-04-10T01:21:24.604Z,17.27
2023-04-10T01:24:07.418Z,16.70
2023-04-10T01:26:56.354Z,20.25
2023-04-10T01:29:27.535Z,17.13
2023-04-10T01:31:58.517Z,16.65
2023-04-10T01:34:35.244Z,20.15
2023-04-10T01:37:08.497Z,20.02
2023-04-10T01:39:40.691Z,16.80
2023-04-10T01:42:09.766Z,16.58
2023-04-10T01:44:43.181Z,17.65
2023-04-10T01:47:11.564Z,21.75
2023-04-10T01:49:44.747Z,18.38
2023-04-10T01:52:12.895Z,23.17
2023-04-10T01:54:45.405Z,16.65
2023-04-10T01:57:19.272Z,18.90
2023-04-10T01:59:54.996Z,20.77
2023-04-10T02:02:22.987Z,19.55
2023-04-10T02:04:51.911Z,18.25
2023-04-10T02:07:22.789Z,19.05
2023-04-10T02:09:57.199Z,19.65
2023-04-10T02:12:30.082Z,19.25
2023-04-10T02:15:01.906Z,20.05
2023-04-10T02:17:33.180Z,22.67
2023-04-10T02:20:00.969Z,19.73
2023-04-10T02:22:28.607Z,19.38
2023-04-10T02:24:56.543Z,24.08
2023-04-10T02:27:34.329Z,20.13
2023-04-10T02:30:05.604Z,24.45
2023-04-10T02:32:37.112Z,20.42
2023-04-10T02:35:08.977Z,21.10
2023-04-10T02:37:38.905Z,19.23
2023-04-10T02:40:08.366Z,19.70
2023-04-10T02:42:53.635Z,17.67
2023-04-10T02:45:22.520Z,20.27
2023-04-10T02:47:50.150Z,20.58
2023-04-10T02:50:21.354Z,20.17
2023-04-10T02:52:49.354Z,22.42
2023-04-10T02:55:19.429Z,23.27
2023-04-10T02:57:49.221Z,22.95
2023-04-10T03:00:19.037Z,21.17
2023-04-10T03:03:05.914Z,19.35
2023-04-10T03:05:42.540Z,20.67
2023-04-10T03:08:10.574Z,21.80
2023-04-10T03:10:38.015Z,20.83
2023-04-10T03:13:05.729Z,20.38
2023-04-10T03:15:34.606Z,21.05
2023-04-10T03:18:02.549Z,21.20
2023-04-10T03:20:30.385Z,22.75
2023-04-10T03:23:01.181Z,21.48
2023-04-10T03:25:28.984Z,22.02
2023-04-10T03:27:57.592Z,19.30
2023-04-10T03:30:25.885Z,20.80
2023-04-10T03:32:53.975Z,21.15
2023-04-10T03:35:21.532Z,22.25
2023-04-10T03:37:49.626Z,19.77
2023-04-10T03:40:19.140Z,24.63
2023-04-10T03:42:47.457Z,20.52
2023-04-10T03:45:15.333Z,20.90
2023-04-10T03:47:43.023Z,22.70
2023-04-10T03:50:13.582Z,23.13
2023-04-10T03:52:50.569Z,21.25
2023-04-10T03:55:21.122Z,20.65
2023-04-10T03:57:51.076Z,19.83
2023-04-10T04:00:21.611Z,23.52
2023-04-10T04:02:53.154Z,20.27
2023-04-10T04:05:42.800Z,21.40
2023-04-10T04:08:27.065Z,19.40
2023-04-10T04:11:29.081Z,21.17
2023-04-10T04:14:00.163Z,21.08
2023-04-10T04:16:47.392Z,20.48
2023-04-10T04:19:28.344Z,24.67
2023-04-10T04:22:10.708Z,17.95
2023-04-10T04:25:01.891Z,21.48
2023-04-10T04:27:50.004Z,21.15
2023-04-10T04:30:36.249Z,21.92
2023-04-10T04:36:09.447Z,21.13
2023-04-10T04:39:23.372Z,20.55
2023-04-10T04:42:04.301Z,22.05
2023-04-10T04:44:52.265Z,20.48
2023-04-10T04:47:38.721Z,19.38
2023-04-10T04:50:17.260Z,18.92
2023-04-10T04:53:04.569Z,23.65
2023-04-10T04:55:56.816Z,18.20
2023-04-10T04:58:43.337Z,18.70
2023-04-10T05:01:37.470Z,23.35
2023-04-10T05:04:25.152Z,22.35
2023-04-10T05:07:15.811Z,24.83
2023-04-10T05:10:16.945Z,19.63
2023-04-10T05:13:12.882Z,21.45
2023-04-10T05:15:54.361Z,21.08
2023-04-10T05:21:44.770Z,21.70
2023-04-10T05:24:24.525Z,23.40
2023-04-10T05:27:14.602Z,22.45
2023-04-10T05:29:59.680Z,25.10
2023-04-10T05:32:50.557Z,20.33
2023-04-10T05:35:38.953Z,19.48
2023-04-10T05:41:22.267Z,23.65
2023-04-10T05:44:08.990Z,19.95
2023-04-10T05:46:55.651Z,22.67
2023-04-10T05:49:49.965Z,22.67
2023-04-10T05:52:35.081Z,19.80
2023-04-10T05:55:22.911Z,20.10
2023-04-10T05:58:09.381Z,22.33
2023-04-10T06:00:58.707Z,21.83
2023-04-10T06:03:59.163Z,22.95
2023-04-10T06:06:27.449Z,20.38
2023-04-10T06:08:57.539Z,21.02
2023-04-10T06:11:25.351Z,22.23
2023-04-10T06:13:55.929Z,21.45
2023-04-10T06:16:31.014Z,19.83
2023-04-10T06:18:59.276Z,19.90
2023-04-10T06:21:26.920Z,21.10
2023-04-10T06:23:55.120Z,18.85
2023-04-10T06:26:23.491Z,19.40
2023-04-10T06:28:51.345Z,19.20
2023-04-10T06:31:22.845Z,21.17
2023-04-10T06:33:51.378Z,20.45
2023-04-10T06:36:19.652Z,22.85
2023-04-10T06:38:58.098Z,19.33
2023-04-10T06:41:25.944Z,20.45
2023-04-10T06:43:56.546Z,24.08
2023-04-10T06:46:26.659Z,19.63
2023-04-10T06:48:57.840Z,20.77
2023-04-10T06:51:26.169Z,19.50
2023-04-10T06:53:53.824Z,18.33
2023-04-10T06:56:21.836Z,18.40
2023-04-10T06:58:49.531Z,21.45
2023-04-10T07:01:19.049Z,21.42
2023-04-10T07:03:58.043Z,18.77
2023-04-10T07:06:26.297Z,22.45
2023-04-10T07:08:54.593Z,19.20
2023-04-10T07:11:22.559Z,21.10
2023-04-10T07:13:53.958Z,17.73
2023-04-10T07:16:23.783Z,19.17
2023-04-10T07:18:51.536Z,16.95
2023-04-10T07:21:20.052Z,20.10
2023-04-10T07:23:49.697Z,17.98
2023-04-10T07:26:18.655Z,17.40
2023-04-10T07:28:47.066Z,31.52
2023-04-10T07:31:15.174Z,19.35
2023-04-10T07:33:42.921Z,18.45
2023-04-10T07:36:10.820Z,18.65
2023-04-10T07:38:39.290Z,17.65
2023-04-10T07:41:07.047Z,19.35
2023-04-10T07:43:34.735Z,20.17
2023-04-10T07:46:02.685Z,18.50
2023-04-10T07:48:30.988Z,22.33
2023-04-10T07:51:06.513Z,20.90
2023-04-10T07:53:34.306Z,20.70
2023-04-10T07:56:01.986Z,18.58
2023-04-10T07:58:30.039Z,17.65
2023-04-10T08:00:59.057Z,17.33
2023-04-10T08:03:27.859Z,22.73
2023-04-10T08:05:58.347Z,17.73
2023-04-10T08:08:25.991Z,16.92
2023-04-10T08:10:59.841Z,17.45
2023-04-10T08:13:33.685Z,16.30
2023-04-10T08:16:01.789Z,17.50
2023-04-10T08:18:29.584Z,15.73
2023-04-10T08:21:00.837Z,17.30
2023-04-10T08:23:28.569Z,15.95
2023-04-10T08:25:57.069Z,15.93
2023-04-10T08:28:24.760Z,16.45
2023-04-10T08:30:54.581Z,17.75
2023-04-10T08:33:31.064Z,16.33
2023-04-10T08:35:58.853Z,15.63
2023-04-10T08:38:28.321Z,16.30
2023-04-10T08:40:57.016Z,16.73
2023-04-10T08:43:26.163Z,13.13
2023-04-10T08:45:54.203Z,11.77
2023-04-10T08:48:22.794Z,15.65
2023-04-10T08:50:50.683Z,15.55
2023-04-10T08:53:21.221Z,14.93
2023-04-10T08:58:22.546Z,13.18
2023-04-10T09:00:58.720Z,13.68
2023-04-10T09:03:26.680Z,13.07
2023-04-10T09:05:55.105Z,12.65
2023-04-10T09:08:23.169Z,13.52
2023-04-10T09:10:50.839Z,14.38
2023-04-10T09:13:35.758Z,18.33
2023-04-10T09:16:10.879Z,13.93
2023-04-10T09:18:47.796Z,12.20
2023-04-10T09:24:05.072Z,14.30
2023-04-10T09:26:33.921Z,14.00
2023-04-10T09:29:07.565Z,13.23
2023-04-10T09:31:36.854Z,15.13
2023-04-10T09:34:23.046Z,14.23
2023-04-10T09:36:55.783Z,13.77
2023-04-10T09:39:23.716Z,16.05
2023-04-10T09:41:58.308Z,12.75
2023-04-10T09:44:33.327Z,12.93
2023-04-10T09:47:27.513Z,11.68
2023-04-10T09:50:00.930Z,15.23
2023-04-10T09:52:29.127Z,11.88
2023-04-10T09:55:08.936Z,10.50
2023-04-10T09:57:36.644Z,14.70
2023-04-10T10:00:05.589Z,10.43
2023-04-10T10:02:39.462Z,12.93
2023-04-10T10:05:10.249Z,12.80
2023-04-10T10:07:39.569Z,10.65
2023-04-10T10:10:09.463Z,11.55
2023-04-10T10:12:50.691Z,9.77
2023-04-10T10:15:32.872Z,14.02
2023-04-10T10:18:19.772Z,10.43
2023-04-10T10:20:48.816Z,12.35
2023-04-10T10:23:18.748Z,9.65
2023-04-10T10:25:48.671Z,11.77
2023-04-10T10:28:19.402Z,12.80
2023-04-10T10:33:19.644Z,11.30
2023-04-10T10:35:50.347Z,11.48
2023-04-10T10:38:19.376Z,10.68
2023-04-10T10:40:48.236Z,10.32
2023-04-10T10:43:19.239Z,11.32
2023-04-10T10:45:59.333Z,8.77
2023-04-10T10:48:26.921Z,9.50
2023-04-10T10:51:04.040Z,10.15
2023-04-10T10:53:43.426Z,10.07
2023-04-10T10:56:20.588Z,9.82
2023-04-10T10:58:53.314Z,12.18
2023-04-10T11:01:22.516Z,9.55
2023-04-10T11:03:51.180Z,9.07
2023-04-10T11:06:21.889Z,11.65
2023-04-10T11:08:54.124Z,12.32
2023-04-10T11:11:25.237Z,8.63
2023-04-10T11:13:58.090Z,8.40
2023-04-10T11:16:47.686Z,9.15
2023-04-10T11:19:20.818Z,8.03
2023-04-10T11:22:04.348Z,8.68
2023-04-10T11:24:52.230Z,10.68
2023-04-10T11:27:42.988Z,8.63
2023-04-10T11:30:29.397Z,10.23
2023-04-10T11:32:57.435Z,9.18
2023-04-10T11:35:26.954Z,11.07
2023-04-10T11:38:17.676Z,9.23
2023-04-10T11:40:59.274Z,8.20
2023-04-10T11:43:27.309Z,8.98
2023-04-10T11:46:02.710Z,11.13
2023-04-10T11:48:30.730Z,7.07
2023-04-10T11:51:00.452Z,9.80
2023-04-10T11:53:30.083Z,9.95
2023-04-10T11:55:58.123Z,6.80
2023-04-10T11:58:32.666Z,9.82
2023-04-10T12:01:01.587Z,7.25
2023-04-10T12:03:42.821Z,13.68
2023-04-10T12:06:15.208Z,6.82
2023-04-10T12:08:51.118Z,8.43
2023-04-10T12:11:21.496Z,6.90
2023-04-10T12:13:54.771Z,6.53
2023-04-10T12:16:23.129Z,9.10
2023-04-10T12:18:52.923Z,7.97
2023-04-10T12:21:20.940Z,5.85
2023-04-10T12:23:49.711Z,4.70
2023-04-10T12:26:19.110Z,9.23
2023-04-10T12:28:54.891Z,5.50
2023-04-10T12:31:36.456Z,6.97
2023-04-10T12:34:09.214Z,4.95
2023-04-10T12:36:37.776Z,5.80
2023-04-10T12:39:07.510Z,5.35
2023-04-10T12:41:36.196Z,7.68
2023-04-10T12:44:23.410Z,8.15
2023-04-10T12:46:51.242Z,6.55
2023-04-10T12:49:20.338Z,6.60
2023-04-10T12:51:49.395Z,4.55
2023-04-10T12:54:33.472Z,7.13
2023-04-10T12:57:05.333Z,5.90
2023-04-10T12:59:33.831Z,6.38
2023-04-10T13:02:01.852Z,5.50
2023-04-10T13:04:32.370Z,6.53
2023-04-10T13:09:29.462Z,5.00
2023-04-10T13:11:57.837Z,6.15
2023-04-10T13:14:27.197Z,8.52
2023-04-10T13:17:05.436Z,5.80
2023-04-10T13:19:32.994Z,5.15
2023-04-10T13:22:03.521Z,10.18
2023-04-10T13:24:31.835Z,9.13
2023-04-10T13:26:59.413Z,5.13
2023-04-10T13:29:27.042Z,5.35
2023-04-10T13:31:56.424Z,6.75
2023-04-10T13:34:24.531Z,5.35
2023-04-10T13:36:52.217Z,5.97
2023-04-10T13:39:19.950Z,9.70
2023-04-10T13:41:51.020Z,6.25
2023-04-10T13:44:27.415Z,5.93
2023-04-10T13:46:55.284Z,6.18
2023-04-10T13:49:31.896Z,6.82
2023-04-10T13:51:59.668Z,5.47
2023-04-10T13:54:27.338Z,5.32
2023-04-10T13:56:55.067Z,4.25
2023-04-10T13:59:22.823Z,5.05
2023-04-10T14:01:53.658Z,5.80
2023-04-10T14:04:22.295Z,4.03
2023-04-10T14:06:54.239Z,5.53
2023-04-10T14:09:22.007Z,5.97
2023-04-10T14:11:53.041Z,4.82
2023-04-10T14:14:24.246Z,4.43
2023-04-10T14:16:52.763Z,8.13
2023-04-10T14:19:20.772Z,4.57
2023-04-10T14:21:53.427Z,3.83
2023-04-10T14:24:21.625Z,6.10
2023-04-10T14:26:51.812Z,6.22
2023-04-10T14:29:33.235Z,5.55
2023-04-10T14:32:04.371Z,5.82
2023-04-10T14:34:32.823Z,4.53
2023-04-10T14:37:00.494Z,7.38
2023-04-10T14:39:31.588Z,8.63
2023-04-10T14:41:59.213Z,4.45
2023-04-10T14:44:26.726Z,3.95
2023-04-10T14:46:54.642Z,3.97
2023-04-10T14:49:22.819Z,5.70
2023-04-10T14:51:50.915Z,4.78
2023-04-10T14:54:23.803Z,8.20
2023-04-10T14:56:51.463Z,4.47
2023-04-10T14:59:19.225Z,4.97
2023-04-10T15:01:50.494Z,4.22
2023-04-10T15:04:21.108Z,4.80
2023-04-10T15:09:22.016Z,5.00
2023-04-10T15:11:50.927Z,4.82
2023-04-10T15:14:19.492Z,4.80
2023-04-10T15:16:48.413Z,8.63
2023-04-10T15:19:16.699Z,7.45
2023-04-10T15:21:44.974Z,7.03
2023-04-10T15:24:12.652Z,5.80
2023-04-10T15:26:45.626Z,11.73
2023-04-10T15:29:13.566Z,5.55
2023-04-10T15:31:41.555Z,6.07
2023-04-10T15:34:09.348Z,6.82
2023-04-10T15:36:37.059Z,11.45
2023-04-10T15:39:05.316Z,6.07
2023-04-10T15:41:33.498Z,6.88
2023-04-10T15:44:01.383Z,7.55
2023-04-10T15:46:32.723Z,4.32
2023-04-10T15:49:01.976Z,6.38
2023-04-10T15:51:30.531Z,8.93
2023-04-10T15:53:58.142Z,7.72
2023-04-10T15:56:25.901Z,9.77
2023-04-10T15:58:53.597Z,9.93
2023-04-10T16:01:23.498Z,5.43
2023-04-10T16:06:20.057Z,7.65
2023-04-10T16:08:48.472Z,7.20
2023-04-10T16:11:17.217Z,4.13
2023-04-10T16:13:45.147Z,6.60
2023-04-10T16:16:18.682Z,4.68
2023-04-10T16:18:48.020Z,5.82
2023-04-10T16:21:15.753Z,4.20
2023-04-10T16:23:43.333Z,5.05
2023-04-10T16:26:10.877Z,5.90
2023-04-10T16:28:38.493Z,6.85
2023-04-10T16:31:06.645Z,5.90
2023-04-10T16:33:34.339Z,5.00
2023-04-10T16:36:05.403Z,6.43
2023-04-10T16:38:34.696Z,4.35
2023-04-10T16:41:03.642Z,9.00
2023-04-10T16:43:31.149Z,4.32
2023-04-10T16:45:59.852Z,6.13
2023-04-10T16:48:27.532Z,6.15
2023-04-10T16:50:55.275Z,7.32
2023-04-10T16:53:22.988Z,3.83
2023-04-10T16:56:02.830Z,5.57
2023-04-10T16:58:33.144Z,6.90
2023-04-10T17:01:01.318Z,6.43
2023-04-10T17:03:29.023Z,6.38
2023-04-10T17:05:56.804Z,4.97
2023-04-10T17:08:24.563Z,5.78
2023-04-10T17:10:52.283Z,8.80
2023-04-10T17:13:20.291Z,9.02
2023-04-10T17:16:00.769Z,10.45
2023-04-10T17:18:31.062Z,9.50
2023-04-10T17:20:59.296Z,10.32
2023-04-10T17:23:27.102Z,10.40
2023-04-10T17:25:55.101Z,11.77
2023-04-10T17:28:22.683Z,13.20
2023-04-10T17:30:50.736Z,13.20
2023-04-10T17:33:21.752Z,12.52
2023-04-10T17:35:50.655Z,12.90
2023-04-10T17:38:21.347Z,14.23
2023-04-10T17:40:49.879Z,11.80
2023-04-10T17:43:20.642Z,13.88
2023-04-10T17:45:49.361Z,12.82
2023-04-10T17:48:30.125Z,14.60
2023-04-10T17:50:58.275Z,11.82
2023-04-10T17:53:26.959Z,17.77
2023-04-10T17:55:54.957Z,12.15
2023-04-10T17:58:22.931Z,12.73
2023-04-10T18:00:50.745Z,12.57
2023-04-10T18:03:19.476Z,12.63
2023-04-10T18:05:48.149Z,13.32
2023-04-10T18:08:16.250Z,12.35
2023-04-10T18:10:44.714Z,12.88
2023-04-10T18:13:12.534Z,10.93
2023-04-10T18:15:39.969Z,10.90
2023-04-10T18:18:12.383Z,12.52
2023-04-10T18:20:40.084Z,11.25
2023-04-10T18:23:08.215Z,14.48
2023-04-10T18:25:35.984Z,12.38
2023-04-10T18:28:14.373Z,13.18
2023-04-10T18:30:48.182Z,11.85
2023-04-10T18:33:24.096Z,12.00
2023-04-10T18:35:56.109Z,12.57
2023-04-10T18:38:27.468Z,10.55
2023-04-10T18:40:56.594Z,9.60
2023-04-10T18:43:27.779Z,9.85
2023-04-10T18:45:55.856Z,12.65
2023-04-10T18:48:23.906Z,13.00
2023-04-10T18:50:53.377Z,10.73
2023-04-10T18:53:21.946Z,14.52
2023-04-10T18:55:54.441Z,12.75
2023-04-10T18:58:22.919Z,12.35
2023-04-10T19:00:50.755Z,14.15
2023-04-10T19:03:20.188Z,10.85
2023-04-10T19:05:48.970Z,12.52
2023-04-10T19:08:20.030Z,12.23
2023-04-10T19:10:48.876Z,10.88
2023-04-10T19:13:17.232Z,12.35
2023-04-10T19:15:53.189Z,11.63
2023-04-10T19:18:21.207Z,9.50
2023-04-10T19:20:53.418Z,9.98
2023-04-10T19:23:22.031Z,11.50
2023-04-10T19:25:54.193Z,10.38
2023-04-10T19:28:22.987Z,9.45
2023-04-10T19:30:50.858Z,8.88
2023-04-10T19:33:22.512Z,10.75
2023-04-10T19:35:50.339Z,9.10
2023-04-10T19:38:21.047Z,10.75
2023-04-10T19:43:17.313Z,8.43
2023-04-10T19:45:45.037Z,6.18
2023-04-10T19:48:12.737Z,7.47
2023-04-10T19:50:40.875Z,6.85
2023-04-10T19:53:13.024Z,8.80
2023-04-10T19:55:41.260Z,5.82
2023-04-10T19:58:13.431Z,7.28
2023-04-10T20:00:52.311Z,7.65
2023-04-10T20:03:26.892Z,8.52
2023-04-10T20:05:55.554Z,8.95
2023-04-10T20:08:23.401Z,4.50
2023-04-10T20:10:51.065Z,9.82
2023-04-10T20:13:19.743Z,6.30
2023-04-10T20:15:48.951Z,7.55
2023-04-10T20:18:18.230Z,7.68
2023-04-10T20:20:50.235Z,7.40
2023-04-10T20:23:19.128Z,5.03
2023-04-10T20:25:47.292Z,9.43
2023-04-10T20:28:17.228Z,7.70
2023-04-10T20:30:45.694Z,8.88
2023-04-10T20:33:13.250Z,5.88
2023-04-10T20:35:41.284Z,9.45
2023-04-10T20:38:08.871Z,7.53
2023-04-10T20:40:36.562Z,8.27
2023-04-10T20:43:11.436Z,7.22
2023-04-10T20:45:39.969Z,9.23
2023-04-10T20:48:07.959Z,9.45
2023-04-10T20:50:37.220Z,13.07
2023-04-10T20:53:05.171Z,8.75
2023-04-10T20:55:32.869Z,9.23
2023-04-10T20:58:00.485Z,12.65
2023-04-10T21:00:31.140Z,8.93
2023-04-10T21:02:59.586Z,10.05
2023-04-10T21:05:27.373Z,7.38
2023-04-10T21:07:55.231Z,9.52
2023-04-10T21:10:22.882Z,8.70
2023-04-10T21:12:51.178Z,11.93
2023-04-10T21:15:19.584Z,18.00
2023-04-10T21:17:48.477Z,8.88
2023-04-10T21:20:16.131Z,9.23
2023-04-10T21:22:45.228Z,10.05
2023-04-10T21:25:12.896Z,14.35
2023-04-10T21:27:41.031Z,13.00
2023-04-10T21:30:12.525Z,12.98
2023-04-10T21:32:40.307Z,18.17
2023-04-10T21:35:08.874Z,12.98
2023-04-10T21:37:36.766Z,10.55
2023-04-10T21:40:04.497Z,13.40
2023-04-10T21:42:33.530Z,15.20
2023-04-10T21:45:01.384Z,13.57
2023-04-10T21:47:28.916Z,17.95
2023-04-10T21:49:56.614Z,11.45
2023-04-10T21:52:24.101Z,16.45
2023-04-10T21:54:51.798Z,21.10
2023-04-10T21:57:19.443Z,11.77
2023-04-10T21:59:50.696Z,12.98
2023-04-10T22:02:19.562Z,19.52
2023-04-10T22:04:54.298Z,15.55
2023-04-10T22:07:22.569Z,15.77
2023-04-10T22:09:50.570Z,15.55
2023-04-10T22:12:21.108Z,19.52
2023-04-10T22:17:18.594Z,19.25
2023-04-10T22:19:46.235Z,16.85
2023-04-10T22:22:20.831Z,18.48
2023-04-10T22:24:49.672Z,17.52
2023-04-10T22:27:18.390Z,20.73
2023-04-10T22:29:56.264Z,19.25
2023-04-10T22:32:30.175Z,18.38
2023-04-10T22:34:59.661Z,19.42
2023-04-10T22:37:28.313Z,20.15
2023-04-10T22:39:57.638Z,20.13
2023-04-10T22:42:26.583Z,20.05
2023-04-10T22:44:57.223Z,18.45
2023-04-10T22:47:28.281Z,18.13
2023-04-10T22:49:57.133Z,26.92
2023-04-10T22:52:24.912Z,25.60
2023-04-10T22:54:52.817Z,29.55
2023-04-10T22:57:20.503Z,21.35
2023-04-10T22:59:48.638Z,17.63
2023-04-10T23:02:17.781Z,19.85
2023-04-10T23:04:45.679Z,26.95
2023-04-10T23:07:14.901Z,31.20
2023-04-10T23:09:42.778Z,25.35
2023-04-10T23:12:11.159Z,32.42
2023-04-10T23:14:38.852Z,35.10
2023-04-10T23:17:06.636Z,27.20
2023-04-10T23:19:34.229Z,29.00
2023-04-10T23:22:01.729Z,23.20
2023-04-10T23:24:29.545Z,19.08
2023-04-10T23:26:57.076Z,27.25
2023-04-10T23:29:24.719Z,28.48
2023-04-10T23:31:52.424Z,28.05
2023-04-10T23:34:21.209Z,26.67
2023-04-10T23:36:51.765Z,29.13
2023-04-10T23:41:49.161Z,27.75
2023-04-10T23:44:17.478Z,40.72
2023-04-10T23:46:45.251Z,23.02
2023-04-10T23:49:12.947Z,31.08
2023-04-10T23:51:40.572Z,39.10
2023-04-10T23:54:08.542Z,30.95
2023-04-10T23:56:36.339Z,29.23
2023-04-10T23:59:06.141Z,32.25
